Flesherton, Canada
Current Conditions -  °F | °C
As of 4:29 PM on Tuesday 21 Oct 2014 (Local Time) from CYBN Reporting Station
Overcast Overcast  
Wind Chill: 39°   Ceiling: 700
Heat Index: 43°   Visibility: 9mi
Dew Point: 43°   Wind: 7mph
Humidity: 100%   Direction: 340°NNW
Pressure: 30.03"   Gusts: NA
Location:  44.25°N, 80.55°W
Report Text: CYBN 212029Z AUTO 34006KT 310V010 9SM FEW004 OVC007 06/06 A3003
Loading
Personal Weather Stations






























Interactive Weather Map
Tropical Storm Tracking
New forecast layout! Learn more

10-Day Weather Forecast

Advertisements
Track Severe Weather on mobile